Time;durP1;ratioP1;P1;durP2;ratioP2;P2;SDS_P1;SDS_P2;PMS_P1;PMS_P2;Temp;Humidity;BMP_temperature;BMP_pressure;BME280_temperature;BME280_humidity;BME280_pressure;Samples;Min_cycle;Max_cycle;Signal;HPM_P1;HPM_P2
2022/08/22 00:02:18;;;;;;;5.47;2.78;;;17.30;99.90;;;;;;5016207;28;20290;-91
2022/08/22 00:04:56;;;;;;;4.45;2.67;;;17.40;99.90;;;;;;5013389;28;20240;-91
2022/08/22 00:07:41;;;;;;;8.50;2.80;;;17.30;99.90;;;;;;5014003;28;20227;-92
2022/08/22 00:10:14;;;;;;;7.20;2.73;;;17.30;99.90;;;;;;5014925;28;20817;-91
2022/08/22 00:12:45;;;;;;;7.03;2.90;;;17.20;99.90;;;;;;5013032;28;20261;-91
2022/08/22 00:15:20;;;;;;;8.40;2.67;;;17.30;99.90;;;;;;5015750;28;20229;-91
2022/08/22 00:17:53;;;;;;;5.20;2.80;;;17.20;99.90;;;;;;5018338;28;20235;-91
2022/08/22 00:20:26;;;;;;;8.60;2.50;;;17.20;99.90;;;;;;5015284;28;20271;-91
2022/08/22 00:22:59;;;;;;;5.10;2.60;;;17.20;99.90;;;;;;5017253;28;20224;-92
2022/08/22 00:25:41;;;;;;;6.80;2.63;;;17.20;99.90;;;;;;5014067;28;20242;-91
2022/08/22 00:28:13;;;;;;;4.03;2.40;;;17.10;99.90;;;;;;5009632;28;20563;-91
2022/08/22 00:30:49;;;;;;;6.60;3.03;;;17.10;99.90;;;;;;5017994;28;20233;-92
2022/08/22 00:33:25;;;;;;;8.07;2.80;;;17.10;99.90;;;;;;5029365;28;20217;-92
2022/08/22 00:36:07;;;;;;;7.40;2.70;;;17.20;99.90;;;;;;5029719;28;20486;-92
2022/08/22 00:38:40;;;;;;;6.50;2.90;;;17.10;99.90;;;;;;5006271;28;20317;-91
2022/08/22 00:41:16;;;;;;;5.63;3.27;;;17.10;99.90;;;;;;5012951;28;20217;-92
2022/08/22 00:44:07;;;;;;;5.63;2.80;;;17.20;99.90;;;;;;5015986;28;20255;-92
2022/08/22 00:47:30;;;;;;;6.07;2.80;;;17.20;99.90;;;;;;5012809;28;20563;-91
2022/08/22 00:50:14;;;;;;;6.70;2.20;;;17.20;99.90;;;;;;4951006;28;20250;-91
2022/08/22 00:53:23;;;;;;;6.50;2.33;;;17.20;99.90;;;;;;4938567;28;20318;-92
2022/08/22 00:56:19;;;;;;;8.30;2.43;;;17.20;99.90;;;;;;5005371;28;20224;-91
2022/08/22 00:59:02;;;;;;;5.97;2.70;;;17.20;99.90;;;;;;5014147;28;20367;-92
2022/08/22 01:01:33;;;;;;;5.63;2.93;;;17.20;99.90;;;;;;5011523;28;20224;-91
2022/08/22 01:04:44;;;;;;;6.27;2.63;;;17.30;99.90;;;;;;5012063;28;20221;-91
2022/08/22 01:07:25;;;;;;;8.20;3.07;;;17.30;99.90;;;;;;5014381;28;20315;-91
2022/08/22 01:10:07;;;;;;;5.90;2.63;;;17.30;99.90;;;;;;5010342;28;20339;-92
2022/08/22 01:12:47;;;;;;;5.50;2.53;;;17.30;99.90;;;;;;5011696;28;20241;-91
2022/08/22 01:15:23;;;;;;;10.27;2.97;;;17.30;99.90;;;;;;5013498;28;20245;-91
2022/08/22 01:18:02;;;;;;;7.07;2.90;;;17.40;99.90;;;;;;5013362;28;20821;-92
2022/08/22 01:21:08;;;;;;;6.90;2.63;;;17.40;99.90;;;;;;5016273;28;20548;-90
2022/08/22 01:24:10;;;;;;;7.07;2.63;;;17.30;99.90;;;;;;5029558;28;20227;-92
2022/08/22 01:27:14;;;;;;;6.67;2.90;;;17.30;99.90;;;;;;5010797;28;20220;-91
2022/08/22 01:30:31;;;;;;;7.13;2.63;;;17.30;99.90;;;;;;5015890;28;20785;-91
2022/08/22 01:33:31;;;;;;;7.00;2.77;;;17.30;99.90;;;;;;5010452;28;20673;-91
2022/08/22 01:36:39;;;;;;;7.70;2.83;;;17.30;99.90;;;;;;4980540;28;20214;-91
2022/08/22 01:39:39;;;;;;;6.60;2.37;;;17.30;99.90;;;;;;5004072;28;20228;-91
2022/08/22 01:42:38;;;;;;;4.57;2.53;;;17.30;99.90;;;;;;4957756;28;20223;-91
2022/08/22 01:45:35;;;;;;;6.47;2.70;;;17.30;99.90;;;;;;4993232;28;20369;-91
2022/08/22 01:48:10;;;;;;;6.83;2.50;;;17.30;99.90;;;;;;5013276;28;20221;-92
2022/08/22 01:50:41;;;;;;;4.27;2.30;;;17.40;99.90;;;;;;5013555;28;20232;-92
2022/08/22 01:53:17;;;;;;;5.63;3.10;;;17.30;99.90;;;;;;4997656;28;20308;-90
2022/08/22 01:55:52;;;;;;;8.70;3.20;;;17.40;99.90;;;;;;4995760;28;20240;-92
2022/08/22 01:58:23;;;;;;;7.90;3.03;;;17.30;99.90;;;;;;5001411;28;20270;-92
2022/08/22 02:01:16;;;;;;;5.97;2.90;;;17.30;99.90;;;;;;5012183;28;20594;-92
2022/08/22 02:03:55;;;;;;;7.37;3.10;;;17.30;99.90;;;;;;5014085;28;20244;-92
2022/08/22 02:06:35;;;;;;;6.50;2.70;;;17.20;99.90;;;;;;5022105;28;20212;-91
2022/08/22 02:09:10;;;;;;;7.93;3.07;;;17.20;99.90;;;;;;5016491;28;20244;-91
2022/08/22 02:11:44;;;;;;;6.70;3.03;;;17.20;99.90;;;;;;5011099;28;20311;-91
2022/08/22 02:14:23;;;;;;;6.90;2.50;;;17.10;99.90;;;;;;5015457;28;20231;-91
2022/08/22 02:16:53;;;;;;;7.00;3.20;;;17.20;99.90;;;;;;5014656;28;20705;-91
2022/08/22 02:19:37;;;;;;;7.43;3.07;;;17.10;99.90;;;;;;5017153;28;20589;-91
2022/08/22 02:22:25;;;;;;;6.77;2.60;;;17.10;99.90;;;;;;5019931;28;20660;-92
2022/08/22 02:25:03;;;;;;;6.87;3.00;;;17.10;99.90;;;;;;5015293;28;20347;-91
2022/08/22 02:27:36;;;;;;;10.50;3.30;;;17.10;99.90;;;;;;5022607;28;20692;-92
2022/08/22 02:30:08;;;;;;;6.27;2.90;;;17.00;99.90;;;;;;5019008;28;20217;-91
2022/08/22 02:32:51;;;;;;;5.33;2.80;;;17.00;99.90;;;;;;5018680;28;20232;-90
2022/08/22 02:35:23;;;;;;;6.60;2.70;;;17.00;99.90;;;;;;5014328;28;20232;-91
2022/08/22 02:37:59;;;;;;;6.00;2.70;;;17.00;99.90;;;;;;5016568;28;20229;-91
2022/08/22 02:40:33;;;;;;;6.40;3.00;;;17.00;99.90;;;;;;5013860;28;20962;-91
2022/08/22 02:43:09;;;;;;;10.33;2.90;;;17.00;99.90;;;;;;5032538;28;20312;-93
2022/08/22 02:45:40;;;;;;;10.17;3.20;;;17.00;99.90;;;;;;5015580;28;20232;-91
2022/08/22 02:48:16;;;;;;;6.93;2.83;;;17.00;99.90;;;;;;5021245;28;20303;-91
2022/08/22 02:50:51;;;;;;;6.90;2.97;;;17.00;99.90;;;;;;5014838;28;20233;-91
2022/08/22 02:53:22;;;;;;;10.60;3.20;;;17.10;99.90;;;;;;5013476;28;20330;-91
2022/08/22 02:55:57;;;;;;;7.57;3.20;;;17.10;99.90;;;;;;5019570;28;20221;-91
2022/08/22 02:58:31;;;;;;;8.20;2.90;;;17.10;99.90;;;;;;5022090;28;20314;-91
2022/08/22 03:01:33;;;;;;;8.17;3.10;;;17.10;99.90;;;;;;5018035;28;20232;-91
2022/08/22 03:04:25;;;;;;;10.03;3.00;;;17.20;99.90;;;;;;4975924;28;20359;-90
2022/08/22 03:07:11;;;;;;;5.67;2.80;;;17.10;99.90;;;;;;5015244;28;20316;-91
2022/08/22 03:09:44;;;;;;;7.30;2.77;;;17.10;99.90;;;;;;5013336;28;20228;-91
2022/08/22 03:12:21;;;;;;;7.40;2.83;;;17.10;99.90;;;;;;5012746;28;20528;-90
2022/08/22 03:14:55;;;;;;;6.50;2.67;;;17.10;99.90;;;;;;5015679;28;20220;-91
2022/08/22 03:17:29;;;;;;;9.83;3.60;;;17.10;99.90;;;;;;5014880;28;20224;-91
2022/08/22 03:20:02;;;;;;;7.43;2.67;;;17.10;99.90;;;;;;5014270;28;20225;-91
2022/08/22 03:22:36;;;;;;;4.57;2.47;;;17.10;99.90;;;;;;5019047;28;20847;-90
2022/08/22 03:25:12;;;;;;;7.67;3.03;;;17.10;99.90;;;;;;5014924;28;20239;-90
2022/08/22 03:27:44;;;;;;;7.57;2.83;;;17.10;99.90;;;;;;5012443;28;20235;-91
2022/08/22 03:30:17;;;;;;;8.93;3.57;;;17.10;99.90;;;;;;5016007;28;20228;-91
2022/08/22 03:32:52;;;;;;;6.97;2.90;;;17.10;99.90;;;;;;5018028;28;20229;-91
2022/08/22 03:35:26;;;;;;;9.97;2.73;;;17.10;99.90;;;;;;5016707;28;20231;-92
2022/08/22 03:38:11;;;;;;;8.50;3.30;;;17.00;99.90;;;;;;5019118;28;20235;-91
2022/08/22 03:40:51;;;;;;;9.13;3.20;;;17.10;99.90;;;;;;5013493;28;20289;-90
2022/08/22 03:44:02;;;;;;;9.83;3.63;;;17.10;99.90;;;;;;5015746;28;20222;-91
2022/08/22 03:46:57;;;;;;;9.53;3.57;;;17.00;99.90;;;;;;5019498;28;20231;-92
2022/08/22 03:50:00;;;;;;;6.67;2.90;;;17.00;99.90;;;;;;4988133;28;20225;-92
2022/08/22 03:53:09;;;;;;;8.17;3.27;;;17.00;99.90;;;;;;5016009;28;20224;-91
2022/08/22 03:56:11;;;;;;;7.97;3.07;;;17.00;99.90;;;;;;5016698;28;20220;-91
2022/08/22 03:59:04;;;;;;;7.87;3.57;;;17.00;99.90;;;;;;5001485;28;20225;-92
2022/08/22 04:02:02;;;;;;;6.00;3.17;;;17.00;99.90;;;;;;5013600;28;20229;-92
2022/08/22 04:04:57;;;;;;;6.07;2.83;;;17.00;99.90;;;;;;5011050;28;20682;-91
2022/08/22 04:08:03;;;;;;;9.37;3.30;;;17.00;99.90;;;;;;5029201;28;22611;-90
2022/08/22 04:10:57;;;;;;;6.83;2.93;;;17.00;99.90;;;;;;5015292;28;20221;-91
2022/08/22 04:13:57;;;;;;;6.20;2.77;;;17.00;99.90;;;;;;5012623;28;20407;-91
2022/08/22 04:16:59;;;;;;;11.37;2.80;;;17.00;99.90;;;;;;5012166;28;20680;-91
2022/08/22 04:20:05;;;;;;;9.37;3.30;;;17.00;99.90;;;;;;5014361;28;20314;-91
2022/08/22 04:22:52;;;;;;;7.17;2.90;;;17.00;99.90;;;;;;5021992;28;20213;-92
2022/08/22 04:25:24;;;;;;;9.00;3.37;;;17.00;99.90;;;;;;5022421;28;20278;-91
2022/08/22 04:28:00;;;;;;;8.57;3.00;;;17.00;99.90;;;;;;5011893;28;20236;-93
2022/08/22 04:30:34;;;;;;;5.77;3.43;;;16.90;99.90;;;;;;5034891;28;20713;-92
2022/08/22 04:33:09;;;;;;;7.77;3.00;;;16.90;99.90;;;;;;5015320;28;20217;-93
2022/08/22 04:35:42;;;;;;;8.73;3.60;;;16.90;99.90;;;;;;5045970;23;20239;-81
2022/08/22 04:38:15;;;;;;;6.60;2.73;;;16.90;99.90;;;;;;5040013;28;20295;-78
2022/08/22 04:40:49;;;;;;;8.97;3.60;;;16.90;99.90;;;;;;5039044;28;20290;-80
2022/08/22 04:43:21;;;;;;;5.03;2.80;;;16.90;99.90;;;;;;5020340;28;20256;-80
2022/08/22 04:45:54;;;;;;;5.88;3.10;;;16.90;99.90;;;;;;5016945;28;20221;-80
2022/08/22 04:48:28;;;;;;;8.00;2.90;;;16.90;99.90;;;;;;5016842;28;20772;-81
2022/08/22 04:51:01;;;;;;;10.47;3.17;;;16.90;99.90;;;;;;5020788;28;20260;-80
2022/08/22 04:53:48;;;;;;;6.13;2.77;;;16.90;99.90;;;;;;5021236;28;20231;-80
2022/08/22 04:56:24;;;;;;;7.90;3.17;;;16.90;99.90;;;;;;5016780;28;20665;-80
2022/08/22 04:59:03;;;;;;;9.70;3.73;;;16.90;99.90;;;;;;5023633;28;20234;-80
2022/08/22 05:01:42;;;;;;;9.93;3.30;;;16.90;99.90;;;;;;5027333;28;20636;-79
2022/08/22 05:04:13;;;;;;;6.53;2.93;;;16.90;99.90;;;;;;5010937;28;20330;-79
2022/08/22 05:06:45;;;;;;;8.30;3.47;;;16.90;99.90;;;;;;5019916;28;20225;-80
2022/08/22 05:09:19;;;;;;;9.77;3.67;;;16.80;99.90;;;;;;5022309;28;20217;-80
2022/08/22 05:11:51;;;;;;;6.30;3.27;;;16.90;99.90;;;;;;5024303;28;20237;-81
2022/08/22 05:14:23;;;;;;;9.17;3.10;;;16.90;99.90;;;;;;5033594;28;20232;-81
2022/08/22 05:16:56;;;;;;;8.53;3.53;;;16.90;99.90;;;;;;5041986;28;20208;-81
2022/08/22 05:19:33;;;;;;;7.70;3.37;;;16.90;99.90;;;;;;5035611;28;20216;-81
2022/08/22 05:22:01;;;;;;;9.67;3.33;;;16.90;99.90;;;;;;5031533;28;20680;-81
2022/08/22 05:24:36;;;;;;;9.43;3.40;;;16.90;99.90;;;;;;5025914;28;20772;-81
2022/08/22 05:27:10;;;;;;;9.83;3.57;;;17.00;99.90;;;;;;5018868;28;20720;-80
2022/08/22 05:29:39;;;;;;;8.17;2.97;;;17.00;99.90;;;;;;5036551;28;20223;-79
2022/08/22 05:32:15;;;;;;;6.77;3.17;;;17.00;99.90;;;;;;5030139;28;20239;-82
2022/08/22 05:34:45;;;;;;;8.63;3.60;;;17.10;99.90;;;;;;5025750;28;20295;-79
2022/08/22 05:37:16;;;;;;;7.07;3.00;;;17.10;99.90;;;;;;5023540;28;20221;-77
2022/08/22 05:39:47;;;;;;;8.17;3.50;;;17.10;99.90;;;;;;5036041;28;20230;-78
2022/08/22 05:42:20;;;;;;;7.10;2.80;;;17.10;99.90;;;;;;5019863;28;20243;-78
2022/08/22 05:44:47;;;;;;;11.07;3.27;;;17.20;99.90;;;;;;5025208;28;20230;-78
2022/08/22 05:47:22;;;;;;;9.87;3.43;;;17.20;99.90;;;;;;5021253;28;20232;-78
2022/08/22 05:49:58;;;;;;;11.60;4.20;;;17.20;99.90;;;;;;5037997;28;20288;-78
2022/08/22 05:52:38;;;;;;;10.70;3.53;;;17.20;99.90;;;;;;5024950;28;20236;-78
2022/08/22 05:55:16;;;;;;;6.93;3.00;;;17.30;99.90;;;;;;5019924;28;20224;-78
2022/08/22 05:57:49;;;;;;;8.43;3.67;;;17.30;99.90;;;;;;5033256;28;20237;-78
2022/08/22 06:00:20;;;;;;;9.53;3.20;;;17.40;99.90;;;;;;5014878;28;20264;-78
2022/08/22 06:02:56;;;;;;;9.70;3.00;;;17.40;99.90;;;;;;5020268;28;20723;-78
2022/08/22 06:05:28;;;;;;;7.47;3.30;;;17.50;99.90;;;;;;5023959;28;20239;-78
2022/08/22 06:08:02;;;;;;;8.50;3.23;;;17.60;99.90;;;;;;5043843;28;20228;-78
2022/08/22 06:10:39;;;;;;;9.80;3.60;;;17.60;99.90;;;;;;5022748;28;20228;-78
2022/08/22 06:13:11;;;;;;;11.30;3.60;;;17.70;99.90;;;;;;5018852;28;20378;-78
2022/08/22 06:15:48;;;;;;;7.43;3.40;;;17.80;99.90;;;;;;5010039;28;20423;-78
2022/08/22 06:18:20;;;;;;;10.93;3.53;;;17.80;99.90;;;;;;5022802;28;20227;-78
2022/08/22 06:20:52;;;;;;;8.60;3.13;;;17.90;99.90;;;;;;5024364;28;20290;-78
2022/08/22 06:23:23;;;;;;;8.03;3.23;;;17.90;99.90;;;;;;5016103;28;20232;-78
2022/08/22 06:25:57;;;;;;;8.70;3.50;;;18.00;99.90;;;;;;5034064;28;20245;-78
2022/08/22 06:28:26;;;;;;;9.73;3.33;;;18.00;99.90;;;;;;5021547;28;20263;-78
2022/08/22 06:30:55;;;;;;;5.93;3.10;;;18.00;99.90;;;;;;5024779;28;20262;-78
2022/08/22 06:33:28;;;;;;;7.15;3.22;;;18.10;99.90;;;;;;5027880;28;20236;-78
2022/08/22 06:39:02;;;;;;;7.35;3.30;;;18.20;99.90;;;;;;5023679;28;20260;-77
2022/08/22 06:41:32;;;;;;;6.93;3.53;;;18.20;99.90;;;;;;5022681;28;20225;-78
2022/08/22 06:44:01;;;;;;;10.93;3.30;;;18.30;99.90;;;;;;5021655;28;20224;-77
2022/08/22 06:46:31;;;;;;;8.43;3.53;;;18.40;99.90;;;;;;5029976;28;20263;-77
2022/08/22 06:49:00;;;;;;;12.68;3.58;;;18.40;99.90;;;;;;5025321;28;20290;-78
2022/08/22 06:51:29;;;;;;;7.25;3.45;;;18.50;99.90;;;;;;5020492;28;20328;-78
2022/08/22 06:54:00;;;;;;;9.25;3.15;;;18.60;99.90;;;;;;5025777;28;20311;-78
2022/08/22 06:56:31;;;;;;;5.80;3.10;;;18.70;99.90;;;;;;5020831;28;20279;-81
2022/08/22 06:59:02;;;;;;;10.88;4.07;;;18.80;99.90;;;;;;5024750;28;20226;-79
2022/08/22 07:01:34;;;;;;;10.27;3.13;;;18.90;99.90;;;;;;5025283;28;20238;-79
2022/08/22 07:04:09;;;;;;;9.10;3.08;;;19.00;99.90;;;;;;5024154;28;20268;-79
2022/08/22 07:06:40;;;;;;;8.80;3.30;;;19.10;99.90;;;;;;5023872;28;20270;-79
2022/08/22 07:09:16;;;;;;;6.35;3.00;;;19.20;99.90;;;;;;5023867;28;20296;-80
2022/08/22 07:11:43;;;;;;;12.18;4.10;;;19.20;99.90;;;;;;5019359;28;20244;-81
2022/08/22 07:14:14;;;;;;;7.03;3.10;;;19.30;99.90;;;;;;5023521;28;20304;-79
2022/08/22 07:16:43;;;;;;;6.40;3.10;;;19.40;99.90;;;;;;5022590;28;20638;-79
2022/08/22 07:19:23;;;;;;;6.00;3.05;;;19.40;99.90;;;;;;5031495;28;20224;-79
2022/08/22 07:21:50;;;;;;;11.52;3.45;;;19.50;99.90;;;;;;5017892;28;20228;-80
2022/08/22 07:28:18;;;;;;;6.57;3.00;;;19.60;99.90;;;;;;5017881;28;20181;-80
2022/08/22 07:30:55;;;;;;;6.53;2.95;;;19.80;99.90;;;;;;5017971;28;20221;-79
2022/08/22 07:33:43;;;;;;;8.75;3.38;;;19.90;99.90;;;;;;5029754;28;20327;-79
2022/08/22 07:36:24;;;;;;;7.95;3.20;;;20.00;99.90;;;;;;5021889;28;20229;-79
2022/08/22 07:39:22;;;;;;;8.70;2.88;;;20.20;99.90;;;;;;5020228;28;20767;-79
2022/08/22 07:42:05;;;;;;;6.43;3.05;;;20.40;99.90;;;;;;5011614;28;20235;-80
2022/08/22 07:44:44;;;;;;;5.05;2.42;;;20.80;99.90;;;;;;5022468;28;20643;-79
2022/08/22 07:47:15;;;;;;;7.05;2.58;;;21.20;99.90;;;;;;5024263;28;20242;-79
2022/08/22 07:49:50;;;;;;;7.68;2.92;;;21.60;99.90;;;;;;5014773;28;20328;-80
2022/08/22 07:52:19;;;;;;;5.90;2.30;;;22.00;99.90;;;;;;5020804;28;20223;-80
2022/08/22 07:54:56;;;;;;;4.38;2.20;;;22.50;99.90;;;;;;5021382;28;20228;-79
2022/08/22 07:57:29;;;;;;;7.13;2.50;;;23.00;99.90;;;;;;5016058;28;20483;-79
2022/08/22 07:59:59;;;;;;;6.38;2.38;;;23.50;99.90;;;;;;5023573;28;20715;-80
2022/08/22 08:02:27;;;;;;;5.57;2.30;;;24.00;99.90;;;;;;5022505;28;20610;-79
2022/08/22 08:04:57;;;;;;;6.82;2.55;;;24.50;99.80;;;;;;5015724;28;20244;-80
2022/08/22 08:07:27;;;;;;;5.88;2.53;;;25.00;98.70;;;;;;5017473;28;20249;-80
2022/08/22 08:09:59;;;;;;;5.95;2.40;;;25.40;98.30;;;;;;5016516;28;20212;-80
2022/08/22 08:12:30;;;;;;;6.38;2.10;;;25.80;97.30;;;;;;5024425;28;20235;-80
2022/08/22 08:14:59;;;;;;;7.10;2.13;;;26.30;96.90;;;;;;5031732;28;20229;-80
2022/08/22 08:17:29;;;;;;;6.20;2.33;;;26.60;96.40;;;;;;5011915;28;20225;-80
2022/08/22 08:19:57;;;;;;;6.00;2.00;;;27.10;95.70;;;;;;5019869;28;21001;-80
2022/08/22 08:22:27;;;;;;;5.60;2.15;;;27.60;95.50;;;;;;5027766;28;20227;-80
2022/08/22 08:24:57;;;;;;;10.55;2.00;;;28.00;94.30;;;;;;5015229;28;20229;-80
2022/08/22 08:30:18;;;;;;;5.97;2.20;;;28.80;92.80;;;;;;5030878;28;20252;-80
2022/08/22 08:32:52;;;;;;;7.90;2.17;;;29.00;91.80;;;;;;5018996;28;20241;-80
2022/08/22 08:35:23;;;;;;;5.15;2.17;;;29.20;91.00;;;;;;5040275;28;20227;-80
2022/08/22 08:37:56;;;;;;;6.65;2.13;;;29.40;91.00;;;;;;5023946;28;20227;-79
2022/08/22 08:40:50;;;;;;;5.70;2.30;;;29.70;90.50;;;;;;5027609;28;20323;-80
2022/08/22 08:43:26;;;;;;;5.38;2.00;;;30.00;90.10;;;;;;5016253;28;20217;-80
2022/08/22 08:46:35;;;;;;;7.70;2.50;;;30.40;88.70;;;;;;5021293;28;20776;-80
2022/08/22 08:49:30;;;;;;;7.50;2.50;;;30.70;88.70;;;;;;5037307;28;20859;-80
2022/08/22 08:52:26;;;;;;;6.47;2.30;;;31.00;85.50;;;;;;5011846;28;20279;-80
2022/08/22 08:55:16;;;;;;;8.55;2.20;;;31.10;82.80;;;;;;5005233;28;20291;-80
2022/08/22 08:57:52;;;;;;;5.60;2.00;;;31.20;84.50;;;;;;5021734;28;20279;-80
2022/08/22 09:00:23;;;;;;;6.78;2.35;;;31.20;83.30;;;;;;5042173;28;20716;-80
2022/08/22 09:03:03;;;;;;;6.75;2.10;;;31.30;82.40;;;;;;5017514;28;20229;-80
2022/08/22 09:06:00;;;;;;;7.05;1.83;;;31.50;82.50;;;;;;5026289;28;20225;-80
2022/08/22 09:08:46;;;;;;;6.95;2.15;;;31.80;81.00;;;;;;5018950;28;20224;-80
2022/08/22 09:11:56;;;;;;;4.55;2.10;;;32.20;79.80;;;;;;5021328;28;20222;-80
2022/08/22 09:14:46;;;;;;;5.50;2.20;;;32.60;77.10;;;;;;5018394;28;20237;-80
2022/08/22 09:17:39;;;;;;;4.55;1.98;;;33.10;78.30;;;;;;5006547;28;20232;-81
2022/08/22 09:20:40;;;;;;;4.85;1.95;;;33.50;75.30;;;;;;5035433;28;20935;-80
2022/08/22 09:23:50;;;;;;;6.55;2.35;;;33.90;73.20;;;;;;5003271;28;20234;-81
2022/08/22 09:26:23;;;;;;;5.50;2.17;;;34.30;74.10;;;;;;5021535;28;20220;-80
2022/08/22 09:29:00;;;;;;;5.15;2.28;;;34.60;71.40;;;;;;5023801;28;20241;-80
2022/08/22 09:31:38;;;;;;;7.80;2.03;;;34.90;68.30;;;;;;5019081;28;20689;-80
2022/08/22 09:34:13;;;;;;;5.32;1.92;;;35.10;66.20;;;;;;5009701;28;20248;-80
2022/08/22 09:37:01;;;;;;;5.75;2.10;;;35.10;66.10;;;;;;5015487;28;20228;-80
2022/08/22 09:39:36;;;;;;;7.95;2.28;;;35.10;65.60;;;;;;5023072;28;20794;-81
2022/08/22 09:42:16;;;;;;;5.35;2.00;;;35.20;65.40;;;;;;5021906;28;20227;-81
2022/08/22 09:44:54;;;;;;;5.63;1.95;;;35.10;63.60;;;;;;5012707;28;20235;-80
2022/08/22 09:47:29;;;;;;;5.28;2.22;;;35.00;62.40;;;;;;5034602;28;20220;-80
2022/08/22 09:50:06;;;;;;;4.30;2.00;;;34.70;61.70;;;;;;5014125;28;20979;-79
2022/08/22 09:52:57;;;;;;;4.97;1.75;;;34.30;62.00;;;;;;5019186;28;20228;-80
2022/08/22 09:55:43;;;;;;;4.97;2.20;;;33.70;62.00;;;;;;5010236;28;20235;-80
2022/08/22 09:58:19;;;;;;;6.20;2.17;;;33.10;61.80;;;;;;5016064;28;20829;-78
2022/08/22 10:00:54;;;;;;;7.15;2.10;;;32.60;62.90;;;;;;5035163;28;20228;-79
2022/08/22 10:03:32;;;;;;;6.78;2.08;;;32.10;62.50;;;;;;5015330;28;20228;-79
2022/08/22 10:06:01;;;;;;;6.05;2.13;;;31.60;63.30;;;;;;5014450;28;20717;-80
2022/08/22 10:08:37;;;;;;;4.38;2.00;;;31.20;64.60;;;;;;5016298;28;20598;-79
2022/08/22 10:11:17;;;;;;;5.45;2.03;;;31.00;64.40;;;;;;5015748;28;20235;-79
2022/08/22 10:13:55;;;;;;;7.45;2.10;;;30.90;65.20;;;;;;5014179;28;20301;-80
2022/08/22 10:16:37;;;;;;;5.47;1.58;;;30.90;65.10;;;;;;5020266;28;20697;-80
2022/08/22 10:19:15;;;;;;;6.10;1.80;;;30.90;66.10;;;;;;5014891;28;20231;-81
2022/08/22 10:21:50;;;;;;;7.15;2.00;;;30.80;65.60;;;;;;5020694;28;20275;-80
2022/08/22 10:24:25;;;;;;;4.50;2.05;;;30.60;65.30;;;;;;5020427;28;20302;-79
2022/08/22 10:26:54;;;;;;;5.75;1.75;;;30.60;65.60;;;;;;5015098;28;20240;-79
2022/08/22 10:29:48;;;;;;;6.90;1.80;;;30.40;66.40;;;;;;5033593;28;21517;-80
2022/08/22 10:32:29;;;;;;;5.25;2.00;;;30.30;66.70;;;;;;5016983;28;20228;-79
2022/08/22 10:35:01;;;;;;;3.80;1.55;;;30.40;67.60;;;;;;5022232;28;20319;-79
2022/08/22 10:37:32;;;;;;;5.50;1.98;;;30.60;67.40;;;;;;5017114;28;20228;-80
2022/08/22 10:40:04;;;;;;;5.60;1.98;;;30.70;66.00;;;;;;5016847;28;20231;-79
2022/08/22 10:42:36;;;;;;;7.03;1.80;;;30.90;64.60;;;;;;5022313;28;20217;-79
2022/08/22 10:45:17;;;;;;;4.88;1.70;;;30.90;64.60;;;;;;5021794;28;20280;-80
2022/08/22 10:48:20;;;;;;;4.35;1.90;;;30.90;64.40;;;;;;5021406;28;20710;-79
2022/08/22 10:50:50;;;;;;;4.82;2.05;;;30.70;64.70;;;;;;5021002;28;20316;-80
2022/08/22 10:53:32;;;;;;;5.45;1.95;;;30.60;63.90;;;;;;5029971;28;20302;-80
2022/08/22 10:56:09;;;;;;;5.28;2.00;;;30.30;63.50;;;;;;5018687;28;20388;-80
2022/08/22 10:58:41;;;;;;;5.07;1.77;;;30.00;63.50;;;;;;5016986;28;20755;-80
2022/08/22 11:01:11;;;;;;;8.68;1.67;;;29.70;64.10;;;;;;5017728;28;20700;-80
2022/08/22 11:03:44;;;;;;;5.82;1.73;;;29.60;64.50;;;;;;5021110;28;20236;-80
2022/08/22 11:06:18;;;;;;;6.53;1.77;;;29.50;64.60;;;;;;5023054;28;20228;-79
2022/08/22 11:08:58;;;;;;;5.20;1.80;;;29.30;64.00;;;;;;5020622;28;20224;-79
2022/08/22 11:11:39;;;;;;;4.03;1.40;;;29.10;64.50;;;;;;5020473;28;20866;-79
2022/08/22 11:14:36;;;;;;;3.72;1.67;;;28.90;65.50;;;;;;5018638;28;20225;-80
2022/08/22 11:17:14;;;;;;;4.00;1.80;;;28.70;65.80;;;;;;5020443;28;20934;-80
2022/08/22 11:19:58;;;;;;;12.20;2.05;;;28.50;65.90;;;;;;5021224;28;20223;-79
2022/08/22 11:22:31;;;;;;;3.28;1.60;;;28.40;67.70;;;;;;5024256;28;20315;-80
2022/08/22 11:25:21;;;;;;;4.72;1.70;;;28.50;68.40;;;;;;5040048;28;20235;-79
2022/08/22 11:28:03;;;;;;;4.35;1.80;;;28.60;67.40;;;;;;5016547;28;20225;-80
2022/08/22 11:30:35;;;;;;;3.67;1.85;;;28.70;65.60;;;;;;5019288;28;20702;-79
2022/08/22 11:33:17;;;;;;;5.72;1.70;;;28.90;66.40;;;;;;5014747;28;20225;-80
2022/08/22 11:35:54;;;;;;;5.03;1.88;;;28.80;66.00;;;;;;5020894;28;20223;-79
2022/08/22 11:38:29;;;;;;;6.55;1.85;;;28.80;66.30;;;;;;5012646;28;20237;-80
2022/08/22 11:40:59;;;;;;;4.63;1.73;;;28.70;66.90;;;;;;5019711;28;20220;-80
2022/08/22 11:43:41;;;;;;;3.60;1.52;;;28.70;68.00;;;;;;5016334;28;20236;-79
2022/08/22 11:46:20;;;;;;;4.32;1.80;;;28.70;68.20;;;;;;5016990;28;20224;-79
2022/08/22 11:49:01;;;;;;;3.90;1.95;;;28.90;68.70;;;;;;5015947;28;20232;-79
2022/08/22 11:52:04;;;;;;;7.05;1.73;;;29.10;69.10;;;;;;5010391;28;20294;-80
2022/08/22 11:54:43;;;;;;;3.40;1.73;;;29.40;68.00;;;;;;5015987;28;20235;-79
2022/08/22 11:57:13;;;;;;;2.88;1.45;;;29.70;67.50;;;;;;5027600;28;20220;-79
2022/08/22 12:00:01;;;;;;;4.40;1.88;;;30.10;67.60;;;;;;5018962;28;20316;-80
2022/08/22 12:02:40;;;;;;;5.15;1.92;;;30.40;65.80;;;;;;5013172;28;20240;-79
2022/08/22 12:05:14;;;;;;;4.25;1.60;;;30.60;64.10;;;;;;5031674;28;20313;-80
2022/08/22 12:07:51;;;;;;;2.83;1.52;;;30.70;64.10;;;;;;5017865;28;20252;-80
2022/08/22 12:10:23;;;;;;;4.22;1.60;;;30.80;64.40;;;;;;5029881;28;20221;-80
2022/08/22 12:12:59;;;;;;;3.38;1.60;;;30.90;63.90;;;;;;5015864;28;20233;-80
2022/08/22 12:15:34;;;;;;;4.55;1.77;;;31.00;63.50;;;;;;5026744;28;20220;-79
2022/08/22 12:18:21;;;;;;;5.68;1.88;;;31.10;63.60;;;;;;5016520;28;20216;-79
2022/08/22 12:21:05;;;;;;;3.03;1.42;;;31.10;62.90;;;;;;5021681;28;20216;-80
2022/08/22 12:23:54;;;;;;;4.82;1.80;;;31.20;62.60;;;;;;5019513;28;20234;-79
2022/08/22 12:26:30;;;;;;;5.32;1.60;;;31.30;63.10;;;;;;5013966;28;20877;-79
2022/08/22 12:29:13;;;;;;;4.43;1.80;;;31.60;62.70;;;;;;5018439;28;20331;-79
2022/08/22 12:32:08;;;;;;;5.95;1.85;;;32.00;62.10;;;;;;5007769;28;20314;-80
2022/08/22 12:34:44;;;;;;;3.55;1.65;;;32.40;60.80;;;;;;5014032;28;20230;-79
2022/08/22 12:37:16;;;;;;;4.90;1.65;;;32.90;60.30;;;;;;5013994;28;20244;-80
2022/08/22 12:40:11;;;;;;;4.07;1.60;;;33.20;58.90;;;;;;5032660;28;20266;-79
2022/08/22 12:43:00;;;;;;;5.75;1.60;;;33.40;58.80;;;;;;5011155;28;20237;-79
2022/08/22 12:45:41;;;;;;;4.85;1.88;;;33.60;58.20;;;;;;5018834;28;20232;-79
2022/08/22 12:48:23;;;;;;;3.95;1.88;;;33.80;57.70;;;;;;5019087;28;20230;-79
2022/08/22 12:50:55;;;;;;;3.30;1.50;;;33.90;57.00;;;;;;5030565;28;20233;-79
2022/08/22 12:53:40;;;;;;;4.78;1.92;;;34.00;56.00;;;;;;5027682;28;20275;-79
2022/08/22 12:56:21;;;;;;;3.17;1.67;;;33.90;55.90;;;;;;5015819;28;20235;-80
2022/08/22 12:59:11;;;;;;;3.83;1.80;;;33.70;55.30;;;;;;5014570;28;20224;-80
2022/08/22 13:01:42;;;;;;;4.75;2.00;;;33.40;55.30;;;;;;5013528;28;20232;-80
2022/08/22 13:04:15;;;;;;;4.18;1.65;;;33.20;55.60;;;;;;5012477;28;20233;-80
2022/08/22 13:07:07;;;;;;;2.55;1.48;;;32.90;55.60;;;;;;5017824;28;20561;-80
2022/08/22 13:09:36;;;;;;;3.75;1.70;;;32.70;56.70;;;;;;5016400;28;20220;-80
2022/08/22 13:12:17;;;;;;;5.28;1.50;;;32.70;56.50;;;;;;5015124;28;20228;-80
2022/08/22 13:14:46;;;;;;;3.35;1.55;;;32.70;56.80;;;;;;5034872;28;20228;-80
2022/08/22 13:17:18;;;;;;;5.50;1.77;;;32.80;56.40;;;;;;5015855;28;20252;-80
2022/08/22 13:19:56;;;;;;;3.05;1.52;;;32.90;55.80;;;;;;5015475;28;20235;-80
2022/08/22 13:22:27;;;;;;;6.15;1.98;;;33.10;56.20;;;;;;5010772;28;20323;-81
2022/08/22 13:25:01;;;;;;;2.53;1.50;;;33.10;55.10;;;;;;5017758;28;20225;-79
2022/08/22 13:27:32;;;;;;;5.50;1.95;;;33.10;55.50;;;;;;5016314;28;20573;-80
2022/08/22 13:30:01;;;;;;;5.38;1.75;;;33.00;55.30;;;;;;5016028;28;20507;-80
2022/08/22 13:32:33;;;;;;;3.17;1.58;;;32.90;55.50;;;;;;5025883;28;20236;-80
2022/08/22 13:35:01;;;;;;;4.07;1.50;;;32.90;55.10;;;;;;5017245;28;20220;-80
2022/08/22 13:37:34;;;;;;;3.25;1.80;;;32.90;55.70;;;;;;5015930;28;20301;-81
2022/08/22 13:40:04;;;;;;;6.47;1.63;;;32.90;55.80;;;;;;5019120;28;20284;-80
2022/08/22 13:42:37;;;;;;;4.63;1.50;;;33.00;55.70;;;;;;5023532;28;20628;-80
2022/08/22 13:45:12;;;;;;;2.72;1.50;;;33.00;55.30;;;;;;5013863;28;20221;-81
2022/08/22 13:47:55;;;;;;;4.47;1.70;;;33.20;55.50;;;;;;5016413;28;20216;-80
2022/08/22 13:50:25;;;;;;;5.28;1.70;;;33.20;55.30;;;;;;5013514;28;20213;-80
2022/08/22 13:53:02;;;;;;;3.22;1.35;;;33.30;55.10;;;;;;5014154;28;20225;-80
2022/08/22 13:55:34;;;;;;;3.38;1.70;;;33.30;54.80;;;;;;5017562;28;20229;-80
2022/08/22 13:58:10;;;;;;;3.85;1.75;;;33.30;54.60;;;;;;5029374;28;20219;-80